createdAt,value
2023-04-04T00:00:42.118Z,13.90
2023-04-04T00:03:18.541Z,13.40
2023-04-04T00:05:54.176Z,11.30
2023-04-04T00:08:29.826Z,11.07
2023-04-04T00:11:09.117Z,9.82
2023-04-04T00:13:43.927Z,14.20
2023-04-04T00:16:19.831Z,12.20
2023-04-04T00:18:56.542Z,9.35
2023-04-04T00:21:36.315Z,10.80
2023-04-04T00:24:13.239Z,13.25
2023-04-04T00:26:51.697Z,10.23
2023-04-04T00:29:28.016Z,11.38
2023-04-04T00:32:08.943Z,11.38
2023-04-04T00:34:47.318Z,12.95
2023-04-04T00:37:22.629Z,10.05
2023-04-04T00:40:00.273Z,12.38
2023-04-04T00:42:40.827Z,10.65
2023-04-04T00:45:16.413Z,10.85
2023-04-04T00:47:51.878Z,11.65
2023-04-04T00:50:28.453Z,13.50
2023-04-04T00:53:03.655Z,15.68
2023-04-04T00:55:40.067Z,13.77
2023-04-04T00:58:19.565Z,12.00
2023-04-04T01:00:55.104Z,8.82
2023-04-04T01:03:31.317Z,10.90
2023-04-04T01:06:08.220Z,12.15
2023-04-04T01:08:43.929Z,9.25
2023-04-04T01:11:20.207Z,15.93
2023-04-04T01:14:00.704Z,11.75
2023-04-04T01:16:36.568Z,9.30
2023-04-04T01:19:15.298Z,12.38
2023-04-04T01:21:51.314Z,13.33
2023-04-04T01:24:26.211Z,9.27
2023-04-04T01:27:07.716Z,10.52
2023-04-04T01:29:55.776Z,13.00
2023-04-04T01:32:33.690Z,10.18
2023-04-04T01:35:21.339Z,11.93
2023-04-04T01:38:13.210Z,15.75
2023-04-04T01:40:49.245Z,9.52
2023-04-04T01:43:29.615Z,10.95
2023-04-04T01:46:06.966Z,12.52
2023-04-04T01:48:43.001Z,9.55
2023-04-04T01:51:19.788Z,12.53
2023-04-04T01:53:55.533Z,14.43
2023-04-04T01:56:31.702Z,10.40
2023-04-04T01:59:14.880Z,7.72
2023-04-04T02:01:50.775Z,11.30
2023-04-04T02:07:03.847Z,11.13
2023-04-04T02:09:40.760Z,10.85
2023-04-04T02:12:17.268Z,11.00
2023-04-04T02:14:55.173Z,13.70
2023-04-04T02:17:30.402Z,10.55
2023-04-04T02:20:06.280Z,11.05
2023-04-04T02:22:40.055Z,11.03
2023-04-04T02:25:16.050Z,12.80
2023-04-04T02:27:51.791Z,9.55
2023-04-04T02:30:30.635Z,13.30
2023-04-04T02:33:10.373Z,10.10
2023-04-04T02:35:47.075Z,8.18
2023-04-04T02:38:23.117Z,13.00
2023-04-04T02:46:21.680Z,8.95
2023-04-04T02:49:02.585Z,11.55
2023-04-04T02:51:40.014Z,9.20
2023-04-04T02:54:17.799Z,11.53
2023-04-04T02:56:55.627Z,9.80
2023-04-04T03:02:09.621Z,8.35
2023-04-04T03:04:47.303Z,12.63
2023-04-04T03:07:25.494Z,15.95
2023-04-04T03:10:02.598Z,13.40
2023-04-04T03:12:37.862Z,13.07
2023-04-04T03:15:18.918Z,10.13
2023-04-04T03:17:59.348Z,10.27
2023-04-04T03:20:36.750Z,10.80
2023-04-04T03:23:12.575Z,16.20
2023-04-04T03:25:47.886Z,11.60
2023-04-04T03:28:24.189Z,15.32
2023-04-04T03:31:03.422Z,17.55
2023-04-04T03:33:43.350Z,14.35
2023-04-04T03:36:18.552Z,15.02
2023-04-04T03:38:57.394Z,13.27
2023-04-04T03:41:32.803Z,15.03
2023-04-04T03:44:10.392Z,13.48
2023-04-04T03:46:46.956Z,13.02
2023-04-04T03:49:26.274Z,13.68
2023-04-04T03:52:03.244Z,15.43
2023-04-04T03:54:41.633Z,13.95
2023-04-04T03:57:16.913Z,14.35
2023-04-04T03:59:53.132Z,16.60
2023-04-04T04:02:31.400Z,18.50
2023-04-04T04:05:10.964Z,13.98
2023-04-04T04:07:48.589Z,14.07
2023-04-04T04:10:29.333Z,17.10
2023-04-04T04:13:04.830Z,14.00
2023-04-04T04:15:45.715Z,14.95
2023-04-04T04:18:27.523Z,14.40
2023-04-04T04:21:12.402Z,13.68
2023-04-04T04:23:52.954Z,12.80
2023-04-04T04:26:29.864Z,14.23
2023-04-04T04:29:08.266Z,15.80
2023-04-04T04:31:47.880Z,14.60
2023-04-04T04:34:23.727Z,13.55
2023-04-04T04:37:06.555Z,10.90
2023-04-04T04:39:51.647Z,12.85
2023-04-04T04:42:47.564Z,13.43
2023-04-04T04:45:29.954Z,13.32
2023-04-04T04:48:14.044Z,10.90
2023-04-04T04:50:55.216Z,13.05
2023-04-04T04:53:46.621Z,13.65
2023-04-04T04:56:22.149Z,15.88
2023-04-04T04:59:01.477Z,12.03
2023-04-04T05:01:36.367Z,11.80
2023-04-04T05:04:11.994Z,15.17
2023-04-04T05:06:56.578Z,17.55
2023-04-04T05:09:37.184Z,14.52
2023-04-04T05:12:11.815Z,15.75
2023-04-04T05:14:51.675Z,12.40
2023-04-04T05:17:29.556Z,18.50
2023-04-04T05:20:15.218Z,11.55
2023-04-04T05:22:53.301Z,14.55
2023-04-04T05:25:43.879Z,15.52
2023-04-04T05:28:21.168Z,15.37
2023-04-04T05:30:59.992Z,15.80
2023-04-04T05:33:40.588Z,12.27
2023-04-04T05:36:29.803Z,15.70
2023-04-04T05:39:12.363Z,10.33
2023-04-04T05:42:04.337Z,14.20
2023-04-04T05:44:43.747Z,12.20
2023-04-04T05:47:22.396Z,10.50
2023-04-04T05:49:59.352Z,11.95
2023-04-04T05:52:37.790Z,12.50
2023-04-04T05:55:14.738Z,12.20
2023-04-04T05:57:59.054Z,12.60
2023-04-04T06:00:50.529Z,25.58
2023-04-04T06:03:26.973Z,11.40
2023-04-04T06:06:04.746Z,10.97
2023-04-04T06:08:53.117Z,6.95
2023-04-04T06:11:29.078Z,8.57
2023-04-04T06:14:25.948Z,9.97
2023-04-04T06:17:02.339Z,9.50
2023-04-04T06:19:39.860Z,8.13
2023-04-04T06:22:16.527Z,9.00
2023-04-04T06:24:56.347Z,8.85
2023-04-04T06:27:35.821Z,8.70
2023-04-04T06:30:19.805Z,10.18
2023-04-04T06:32:54.232Z,6.20
2023-04-04T06:35:35.275Z,8.50
2023-04-04T06:38:12.373Z,8.40
2023-04-04T06:40:47.500Z,9.52
2023-04-04T06:43:23.787Z,10.50
2023-04-04T06:46:02.966Z,9.82
2023-04-04T06:48:39.415Z,7.20
2023-04-04T06:51:18.668Z,7.20
2023-04-04T06:53:56.176Z,8.75
2023-04-04T06:56:35.432Z,6.68
2023-04-04T06:59:14.702Z,8.82
2023-04-04T07:01:53.747Z,9.85
2023-04-04T07:04:33.663Z,7.50
2023-04-04T07:07:12.036Z,7.47
2023-04-04T07:09:49.335Z,8.87
2023-04-04T07:12:25.968Z,7.25
2023-04-04T07:15:02.801Z,10.60
2023-04-04T07:17:45.468Z,7.65
2023-04-04T07:20:23.645Z,6.50
2023-04-04T07:22:58.435Z,5.10
2023-04-04T07:25:34.292Z,5.77
2023-04-04T07:28:13.612Z,10.15
2023-04-04T07:30:50.177Z,5.60
2023-04-04T07:33:28.238Z,5.50
2023-04-04T07:36:06.232Z,7.07
2023-04-04T07:38:44.160Z,7.47
2023-04-04T07:41:22.357Z,8.23
2023-04-04T07:43:57.714Z,5.90
2023-04-04T07:46:34.718Z,4.85
2023-04-04T07:49:14.698Z,6.65
2023-04-04T07:51:51.322Z,6.72
2023-04-04T07:54:27.636Z,6.77
2023-04-04T07:57:05.781Z,4.23
2023-04-04T07:59:43.202Z,4.30
2023-04-04T08:02:18.277Z,9.45
2023-04-04T08:04:57.301Z,5.22
2023-04-04T08:07:34.512Z,5.00
2023-04-04T08:10:11.763Z,5.50
2023-04-04T08:12:48.429Z,6.25
2023-04-04T08:15:23.510Z,6.40
2023-04-04T08:17:59.417Z,10.20
2023-04-04T08:20:39.617Z,3.63
2023-04-04T08:23:15.655Z,9.07
2023-04-04T08:25:52.770Z,7.72
2023-04-04T08:28:28.656Z,4.33
2023-04-04T08:31:03.914Z,6.82
2023-04-04T08:33:47.191Z,4.93
2023-04-04T08:36:28.007Z,6.47
2023-04-04T08:39:04.419Z,3.75
2023-04-04T08:41:39.752Z,7.45
2023-04-04T08:44:15.507Z,10.95
2023-04-04T08:46:50.463Z,5.68
2023-04-04T08:49:28.051Z,7.35
2023-04-04T08:52:07.996Z,3.83
2023-04-04T08:54:47.350Z,6.90
2023-04-04T08:57:20.857Z,5.03
2023-04-04T08:59:56.859Z,8.32
2023-04-04T09:05:11.716Z,11.15
2023-04-04T09:07:49.249Z,17.95
2023-04-04T09:10:24.723Z,6.55
2023-04-04T09:13:12.383Z,3.38
2023-04-04T09:15:50.636Z,5.23
2023-04-04T09:18:26.182Z,5.18
2023-04-04T09:21:02.023Z,8.57
2023-04-04T09:23:43.949Z,4.35
2023-04-04T09:26:24.005Z,6.18
2023-04-04T09:29:00.291Z,4.40
2023-04-04T09:31:35.432Z,5.15
2023-04-04T09:34:11.742Z,4.90
2023-04-04T09:36:46.624Z,6.80
2023-04-04T09:39:26.291Z,4.75
2023-04-04T09:42:02.369Z,5.65
2023-04-04T09:44:37.488Z,4.13
2023-04-04T09:47:31.708Z,5.13
2023-04-04T09:50:10.279Z,5.70
2023-04-04T09:52:47.053Z,3.85
2023-04-04T09:55:27.015Z,6.75
2023-04-04T09:58:03.208Z,5.15
2023-04-04T10:00:40.726Z,8.18
2023-04-04T10:03:18.491Z,4.97
2023-04-04T10:05:59.473Z,6.25
2023-04-04T10:08:35.136Z,4.80
2023-04-04T10:11:17.216Z,6.63
2023-04-04T10:13:53.171Z,9.07
2023-04-04T10:16:30.248Z,5.50
2023-04-04T10:19:06.289Z,4.60
2023-04-04T10:24:19.478Z,5.95
2023-04-04T10:26:59.396Z,4.35
2023-04-04T10:29:34.474Z,8.45
2023-04-04T10:32:10.856Z,3.90
2023-04-04T10:34:48.703Z,4.40
2023-04-04T10:37:27.732Z,3.83
2023-04-04T10:40:06.281Z,4.13
2023-04-04T10:42:47.867Z,4.05
2023-04-04T10:45:26.874Z,4.50
2023-04-04T10:48:08.110Z,3.15
2023-04-04T10:50:44.645Z,5.43
2023-04-04T10:53:21.926Z,3.70
2023-04-04T10:56:00.689Z,3.95
2023-04-04T10:58:46.443Z,4.38
2023-04-04T11:01:24.626Z,4.72
2023-04-04T11:04:22.223Z,4.57
2023-04-04T11:07:15.353Z,5.25
2023-04-04T11:09:54.852Z,6.10
2023-04-04T11:12:34.759Z,4.70
2023-04-04T11:15:18.080Z,4.20
2023-04-04T11:18:10.303Z,4.40
2023-04-04T11:20:52.403Z,6.75
2023-04-04T11:23:28.725Z,7.05
2023-04-04T11:28:49.932Z,6.45
2023-04-04T11:31:32.972Z,5.75
2023-04-04T11:34:11.556Z,5.85
2023-04-04T11:36:56.674Z,3.88
2023-04-04T11:39:34.673Z,6.20
2023-04-04T11:42:11.104Z,5.00
2023-04-04T11:44:45.306Z,6.63
2023-04-04T11:47:28.193Z,6.45
2023-04-04T11:50:05.895Z,4.80
2023-04-04T11:52:41.813Z,5.25
2023-04-04T11:55:22.567Z,7.20
2023-04-04T11:58:00.385Z,10.45
2023-04-04T12:00:36.438Z,4.70
2023-04-04T12:05:50.350Z,5.07
2023-04-04T12:11:01.470Z,10.43
2023-04-04T12:16:10.517Z,7.65
2023-04-04T12:18:48.613Z,5.30
2023-04-04T12:21:24.087Z,6.82
2023-04-04T12:23:59.989Z,6.45
2023-04-04T12:26:35.569Z,6.87
2023-04-04T12:29:11.071Z,4.53
2023-04-04T12:31:47.916Z,3.65
2023-04-04T12:34:27.462Z,5.97
2023-04-04T12:37:03.041Z,6.43
2023-04-04T12:39:46.445Z,5.57
2023-04-04T12:42:22.162Z,6.60
2023-04-04T12:45:00.020Z,7.50
2023-04-04T12:47:36.079Z,7.32
2023-04-04T12:53:04.225Z,4.97
2023-04-04T12:55:41.520Z,5.00
2023-04-04T12:58:18.938Z,4.38
2023-04-04T13:00:55.777Z,5.70
2023-04-04T13:03:29.164Z,4.25
2023-04-04T13:06:09.969Z,4.80
2023-04-04T13:08:54.323Z,6.47
2023-04-04T13:11:30.480Z,6.75
2023-04-04T13:16:41.249Z,4.25
2023-04-04T13:21:54.957Z,5.65
2023-04-04T13:24:31.802Z,3.72
2023-04-04T13:27:08.648Z,7.38
2023-04-04T13:29:44.697Z,4.45
2023-04-04T13:35:00.543Z,4.35
2023-04-04T13:37:41.230Z,7.25
2023-04-04T13:40:17.516Z,5.15
2023-04-04T13:42:53.879Z,4.03
2023-04-04T13:45:31.219Z,4.50
2023-04-04T13:48:06.675Z,7.95
2023-04-04T13:50:42.228Z,7.00
2023-04-04T13:53:24.973Z,4.55
2023-04-04T13:56:17.559Z,7.33
2023-04-04T13:58:54.483Z,5.55
2023-04-04T14:01:34.217Z,4.63
2023-04-04T14:04:22.902Z,5.93
2023-04-04T14:07:00.418Z,6.87
2023-04-04T14:09:38.912Z,7.28
2023-04-04T14:12:16.958Z,4.05
2023-04-04T14:14:53.554Z,6.65
2023-04-04T14:17:30.380Z,6.40
2023-04-04T14:20:06.712Z,7.15
2023-04-04T14:22:43.682Z,6.75
2023-04-04T14:25:22.907Z,5.10
2023-04-04T14:28:00.364Z,6.57
2023-04-04T14:30:36.384Z,4.20
2023-04-04T14:35:48.995Z,5.72
2023-04-04T14:38:25.488Z,5.35
2023-04-04T14:41:08.535Z,3.97
2023-04-04T14:43:45.277Z,7.07
2023-04-04T14:46:22.849Z,5.43
2023-04-04T14:49:00.602Z,6.38
2023-04-04T14:51:37.270Z,7.25
2023-04-04T14:54:15.671Z,8.55
2023-04-04T14:56:56.849Z,6.72
2023-04-04T14:59:34.886Z,6.40
2023-04-04T15:02:12.136Z,5.65
2023-04-04T15:04:50.093Z,9.40
2023-04-04T15:07:26.171Z,5.07
2023-04-04T15:12:41.531Z,5.55
2023-04-04T15:15:17.158Z,4.95
2023-04-04T15:17:55.102Z,7.90
2023-04-04T15:20:34.114Z,7.95
2023-04-04T15:23:11.712Z,5.80
2023-04-04T15:28:31.695Z,8.15
2023-04-04T15:31:07.343Z,4.22
2023-04-04T15:33:43.067Z,4.63
2023-04-04T15:36:19.433Z,6.80
2023-04-04T15:38:56.046Z,5.63
2023-04-04T15:44:18.079Z,9.20
2023-04-04T15:46:55.954Z,7.50
2023-04-04T15:49:35.183Z,7.33
2023-04-04T15:52:11.180Z,7.97
2023-04-04T15:57:24.465Z,3.42
2023-04-04T16:00:04.554Z,5.32
2023-04-04T16:02:43.711Z,5.22
2023-04-04T16:05:22.592Z,5.32
2023-04-04T16:08:01.935Z,5.65
2023-04-04T16:10:39.654Z,5.75
2023-04-04T16:13:24.130Z,5.32
2023-04-04T16:16:05.028Z,6.05
2023-04-04T16:18:44.416Z,7.28
2023-04-04T16:21:23.880Z,7.78
2023-04-04T16:24:00.028Z,5.53
2023-04-04T16:26:35.495Z,7.40
2023-04-04T16:29:11.146Z,8.50
2023-04-04T16:31:50.154Z,6.65
2023-04-04T16:34:27.350Z,5.10
2023-04-04T16:37:02.174Z,3.53
2023-04-04T16:39:40.057Z,5.72
2023-04-04T16:42:19.679Z,3.88
2023-04-04T16:44:54.020Z,7.07
2023-04-04T16:47:32.667Z,6.72
2023-04-04T16:50:09.057Z,7.15
2023-04-04T16:52:45.691Z,8.70
2023-04-04T16:55:23.380Z,9.10
2023-04-04T16:58:02.565Z,6.55
2023-04-04T17:00:37.365Z,8.93
2023-04-04T17:03:15.745Z,8.57
2023-04-04T17:05:56.526Z,9.35
2023-04-04T17:08:32.548Z,6.90
2023-04-04T17:11:08.674Z,7.15
2023-04-04T17:16:18.227Z,11.07
2023-04-04T17:18:59.626Z,15.52
2023-04-04T17:21:35.899Z,12.05
2023-04-04T17:24:12.850Z,15.98
2023-04-04T17:26:49.717Z,10.50
2023-04-04T17:29:27.360Z,27.15
2023-04-04T17:32:02.401Z,8.75
2023-04-04T17:34:43.193Z,11.38
2023-04-04T17:37:23.518Z,8.48
2023-04-04T17:40:00.360Z,11.98
2023-04-04T17:42:38.232Z,8.60
2023-04-04T17:45:14.858Z,17.60
2023-04-04T17:47:51.912Z,16.52
2023-04-04T17:50:48.351Z,17.30
2023-04-04T17:53:25.384Z,13.70
2023-04-04T17:56:03.691Z,14.85
2023-04-04T17:58:42.132Z,12.27
2023-04-04T18:01:18.234Z,11.40
2023-04-04T18:03:58.881Z,11.45
2023-04-04T18:06:46.180Z,11.75
2023-04-04T18:09:31.709Z,12.70
2023-04-04T18:12:07.815Z,14.50
2023-04-04T18:14:46.978Z,15.65
2023-04-04T18:17:26.191Z,24.58
2023-04-04T18:20:05.328Z,23.83
2023-04-04T18:22:46.514Z,39.28
2023-04-04T18:25:28.454Z,31.88
2023-04-04T18:28:07.944Z,34.90
2023-04-04T18:30:49.798Z,33.75
2023-04-04T18:33:26.936Z,33.97
2023-04-04T18:36:04.673Z,32.87
2023-04-04T18:38:44.042Z,27.83
2023-04-04T18:41:19.799Z,27.65
2023-04-04T18:43:56.329Z,30.60
2023-04-04T18:46:38.990Z,27.40
2023-04-04T18:49:15.068Z,26.67
2023-04-04T18:51:50.763Z,22.10
2023-04-04T18:54:31.532Z,23.40
2023-04-04T18:57:12.198Z,24.70
2023-04-04T18:59:52.932Z,19.40
2023-04-04T19:02:29.299Z,23.52
2023-04-04T19:05:07.950Z,21.20
2023-04-04T19:07:46.283Z,27.00
2023-04-04T19:10:27.453Z,22.40
2023-04-04T19:13:04.897Z,23.52
2023-04-04T19:15:41.766Z,22.83
2023-04-04T19:18:18.704Z,25.95
2023-04-04T19:20:59.891Z,27.35
2023-04-04T19:23:40.517Z,26.30
2023-04-04T19:26:22.712Z,25.20
2023-04-04T19:29:00.002Z,22.52
2023-04-04T19:31:41.378Z,21.45
2023-04-04T19:34:18.194Z,24.75
2023-04-04T19:36:53.986Z,24.23
2023-04-04T19:39:33.982Z,25.27
2023-04-04T19:42:14.438Z,23.90
2023-04-04T19:44:51.661Z,27.27
2023-04-04T19:47:27.854Z,26.52
2023-04-04T19:50:04.295Z,27.67
2023-04-04T19:52:49.763Z,34.63
2023-04-04T19:55:36.176Z,28.80
2023-04-04T19:58:21.706Z,29.30
2023-04-04T20:00:59.412Z,25.37
2023-04-04T20:03:37.627Z,34.03
2023-04-04T20:06:16.306Z,33.88
2023-04-04T20:08:55.802Z,33.80
2023-04-04T20:11:34.359Z,33.37
2023-04-04T20:14:15.488Z,34.80
2023-04-04T20:16:54.669Z,30.20
2023-04-04T20:19:31.736Z,39.40
2023-04-04T20:22:09.113Z,37.03
2023-04-04T20:24:44.664Z,36.90
2023-04-04T20:27:27.376Z,36.70
2023-04-04T20:30:14.264Z,38.50
2023-04-04T20:32:50.295Z,42.28
2023-04-04T20:38:07.077Z,28.65
2023-04-04T20:40:43.588Z,27.80
2023-04-04T20:43:20.529Z,35.50
2023-04-04T20:45:59.221Z,33.67
2023-04-04T20:48:43.893Z,39.00
2023-04-04T20:51:28.109Z,30.67
2023-04-04T20:54:04.393Z,41.35
2023-04-04T20:56:56.822Z,35.87
2023-04-04T20:59:40.992Z,33.35
2023-04-04T21:02:35.843Z,35.53
2023-04-04T21:05:13.031Z,31.85
2023-04-04T21:07:49.523Z,26.73
2023-04-04T21:10:28.566Z,40.37
2023-04-04T21:13:06.773Z,41.53
2023-04-04T21:15:49.156Z,52.90
2023-04-04T21:18:22.982Z,44.67
2023-04-04T21:21:22.773Z,49.95
2023-04-04T21:23:58.028Z,45.70
2023-04-04T21:26:44.075Z,56.27
2023-04-04T21:29:25.125Z,48.78
2023-04-04T21:32:04.278Z,41.25
2023-04-04T21:34:44.306Z,37.10
2023-04-04T21:37:26.349Z,37.90
2023-04-04T21:40:05.067Z,39.08
2023-04-04T21:42:45.286Z,41.25
2023-04-04T21:45:23.021Z,40.05
2023-04-04T21:47:59.668Z,40.85
2023-04-04T21:50:35.549Z,49.72
2023-04-04T21:53:18.188Z,57.95
2023-04-04T21:55:55.434Z,49.55
2023-04-04T21:58:30.766Z,55.47
2023-04-04T22:01:07.339Z,43.60
2023-04-04T22:03:47.410Z,50.20
2023-04-04T22:06:26.561Z,39.10
2023-04-04T22:09:05.698Z,42.45
2023-04-04T22:11:44.697Z,40.83
2023-04-04T22:14:21.065Z,34.80
2023-04-04T22:16:59.867Z,39.72
2023-04-04T22:19:43.738Z,30.95
2023-04-04T22:22:30.404Z,27.10
2023-04-04T22:27:44.893Z,22.30
2023-04-04T22:30:23.114Z,19.13
2023-04-04T22:33:00.327Z,22.70
2023-04-04T22:35:35.861Z,29.50
2023-04-04T22:38:15.145Z,30.50
2023-04-04T22:40:59.627Z,25.67
2023-04-04T22:43:34.859Z,26.30
2023-04-04T22:46:10.690Z,26.17
2023-04-04T22:48:47.692Z,23.90
2023-04-04T22:51:24.888Z,25.75
2023-04-04T22:54:01.416Z,27.88
2023-04-04T22:56:36.696Z,26.80
2023-04-04T23:01:51.486Z,27.35
2023-04-04T23:04:31.502Z,19.40
2023-04-04T23:07:10.594Z,20.27
2023-04-04T23:09:50.731Z,24.10
2023-04-04T23:12:27.089Z,27.73
2023-04-04T23:15:06.609Z,23.83
2023-04-04T23:17:47.572Z,24.40
2023-04-04T23:20:25.201Z,23.10
2023-04-04T23:23:07.649Z,21.13
2023-04-04T23:25:40.335Z,23.27
2023-04-04T23:28:16.999Z,23.45
2023-04-04T23:30:58.038Z,23.02
2023-04-04T23:33:34.228Z,26.00
2023-04-04T23:36:12.145Z,19.42
2023-04-04T23:38:48.122Z,18.20
2023-04-04T23:41:24.022Z,20.08
2023-04-04T23:44:03.542Z,23.95
2023-04-04T23:46:45.771Z,23.55
2023-04-04T23:49:23.351Z,24.70
2023-04-04T23:52:01.144Z,24.98
2023-04-04T23:54:43.001Z,26.35
2023-04-04T23:57:17.336Z,27.27
2023-04-04T23:59:56.249Z,27.63
